sensor_id;sensor_type;location;lat;lon;timestamp;pressure;altitude;pressure_sealevel;temperature
60936;BMP280;46804;51.786;19.520;2022-09-13T00:03:51;98240.66;;;9.22
60936;BMP280;46804;51.786;19.520;2022-09-13T00:07:52;98245.97;;;9.22
60936;BMP280;46804;51.786;19.520;2022-09-13T00:11:53;98247.00;;;9.16
60936;BMP280;46804;51.786;19.520;2022-09-13T00:15:53;98245.66;;;9.14
60936;BMP280;46804;51.786;19.520;2022-09-13T00:19:54;98247.47;;;9.13
60936;BMP280;46804;51.786;19.520;2022-09-13T00:23:54;98248.31;;;9.14
60936;BMP280;46804;51.786;19.520;2022-09-13T00:27:55;98251.75;;;9.14
60936;BMP280;46804;51.786;19.520;2022-09-13T00:31:55;98247.25;;;9.14
60936;BMP280;46804;51.786;19.520;2022-09-13T00:35:57;98241.94;;;9.14
60936;BMP280;46804;51.786;19.520;2022-09-13T00:39:58;98247.25;;;9.14
60936;BMP280;46804;51.786;19.520;2022-09-13T00:44:01;98250.22;;;9.18
60936;BMP280;46804;51.786;19.520;2022-09-13T00:48:05;98238.78;;;9.17
60936;BMP280;46804;51.786;19.520;2022-09-13T00:52:15;98255.25;;;9.19
60936;BMP280;46804;51.786;19.520;2022-09-13T00:56:22;98234.34;;;9.23
60936;BMP280;46804;51.786;19.520;2022-09-13T01:00:24;98238.09;;;9.27
60936;BMP280;46804;51.786;19.520;2022-09-13T01:04:26;98227.75;;;9.30
60936;BMP280;46804;51.786;19.520;2022-09-13T01:08:28;98223.78;;;9.33
60936;BMP280;46804;51.786;19.520;2022-09-13T01:12:35;98219.34;;;9.38
60936;BMP280;46804;51.786;19.520;2022-09-13T01:16:36;98219.44;;;9.48
60936;BMP280;46804;51.786;19.520;2022-09-13T01:30:22;98205.00;;;9.39
60936;BMP280;46804;51.786;19.520;2022-09-13T01:38:55;98200.84;;;9.48
60936;BMP280;46804;51.786;19.520;2022-09-13T01:43:30;98201.16;;;9.51
60936;BMP280;46804;51.786;19.520;2022-09-13T01:47:51;98204.09;;;9.55
60936;BMP280;46804;51.786;19.520;2022-09-13T01:52:23;98196.91;;;9.50
60936;BMP280;46804;51.786;19.520;2022-09-13T01:56:26;98201.13;;;9.47
60936;BMP280;46804;51.786;19.520;2022-09-13T02:00:35;98191.28;;;9.47
60936;BMP280;46804;51.786;19.520;2022-09-13T02:04:40;98184.66;;;9.49
60936;BMP280;46804;51.786;19.520;2022-09-13T02:08:46;98189.69;;;9.46
60936;BMP280;46804;51.786;19.520;2022-09-13T02:12:51;98184.88;;;9.43
60936;BMP280;46804;51.786;19.520;2022-09-13T02:17:00;98183.00;;;9.44
60936;BMP280;46804;51.786;19.520;2022-09-13T02:21:20;98176.69;;;9.49
60936;BMP280;46804;51.786;19.520;2022-09-13T02:25:24;98171.13;;;9.51
60936;BMP280;46804;51.786;19.520;2022-09-13T02:29:26;98166.63;;;9.51
60936;BMP280;46804;51.786;19.520;2022-09-13T02:33:32;98163.97;;;9.51
60936;BMP280;46804;51.786;19.520;2022-09-13T02:37:36;98162.41;;;9.55
60936;BMP280;46804;51.786;19.520;2022-09-13T02:41:54;98164.53;;;9.53
60936;BMP280;46804;51.786;19.520;2022-09-13T02:50:30;98156.22;;;9.45
60936;BMP280;46804;51.786;19.520;2022-09-13T02:54:49;98139.97;;;9.42
60936;BMP280;46804;51.786;19.520;2022-09-13T03:03:04;98136.13;;;9.23
60936;BMP280;46804;51.786;19.520;2022-09-13T03:07:10;98140.88;;;9.21
60936;BMP280;46804;51.786;19.520;2022-09-13T03:15:47;98129.16;;;9.17
60936;BMP280;46804;51.786;19.520;2022-09-13T03:20:10;98131.44;;;9.04
60936;BMP280;46804;51.786;19.520;2022-09-13T03:24:40;98128.47;;;9.00
60936;BMP280;46804;51.786;19.520;2022-09-13T03:33:15;98123.28;;;8.84
60936;BMP280;46804;51.786;19.520;2022-09-13T03:37:26;98128.81;;;8.82
60936;BMP280;46804;51.786;19.520;2022-09-13T03:41:32;98124.81;;;8.80
60936;BMP280;46804;51.786;19.520;2022-09-13T03:45:39;98116.25;;;8.73
60936;BMP280;46804;51.786;19.520;2022-09-13T03:49:41;98112.03;;;8.72
60936;BMP280;46804;51.786;19.520;2022-09-13T03:53:47;98116.22;;;8.68
60936;BMP280;46804;51.786;19.520;2022-09-13T03:57:49;98118.50;;;8.60
60936;BMP280;46804;51.786;19.520;2022-09-13T04:01:49;98112.09;;;8.56
60936;BMP280;46804;51.786;19.520;2022-09-13T04:05:51;98115.00;;;8.54
60936;BMP280;46804;51.786;19.520;2022-09-13T04:09:52;98114.75;;;8.56
60936;BMP280;46804;51.786;19.520;2022-09-13T04:13:52;98105.81;;;8.62
60936;BMP280;46804;51.786;19.520;2022-09-13T04:17:53;98114.78;;;8.61
60936;BMP280;46804;51.786;19.520;2022-09-13T04:21:54;98112.41;;;8.59
60936;BMP280;46804;51.786;19.520;2022-09-13T04:26:02;98105.28;;;8.65
60936;BMP280;46804;51.786;19.520;2022-09-13T04:30:03;98100.00;;;8.65
60936;BMP280;46804;51.786;19.520;2022-09-13T04:34:04;98105.00;;;8.61
60936;BMP280;46804;51.786;19.520;2022-09-13T04:38:06;98100.22;;;8.63
60936;BMP280;46804;51.786;19.520;2022-09-13T04:42:08;98098.97;;;8.66
60936;BMP280;46804;51.786;19.520;2022-09-13T04:46:10;98101.34;;;8.67
60936;BMP280;46804;51.786;19.520;2022-09-13T04:50:11;98096.91;;;8.73
60936;BMP280;46804;51.786;19.520;2022-09-13T04:54:12;98092.72;;;8.77
60936;BMP280;46804;51.786;19.520;2022-09-13T04:58:13;98100.41;;;8.78
60936;BMP280;46804;51.786;19.520;2022-09-13T05:02:13;98095.41;;;8.81
60936;BMP280;46804;51.786;19.520;2022-09-13T05:06:15;98097.28;;;8.86
60936;BMP280;46804;51.786;19.520;2022-09-13T05:10:17;98098.66;;;8.88
60936;BMP280;46804;51.786;19.520;2022-09-13T05:14:18;98097.13;;;8.97
60936;BMP280;46804;51.786;19.520;2022-09-13T05:18:18;98093.72;;;9.02
60936;BMP280;46804;51.786;19.520;2022-09-13T05:22:19;98088.75;;;9.10
60936;BMP280;46804;51.786;19.520;2022-09-13T05:26:21;98095.50;;;9.22
60936;BMP280;46804;51.786;19.520;2022-09-13T05:30:22;98092.44;;;9.35
60936;BMP280;46804;51.786;19.520;2022-09-13T05:34:23;98088.28;;;9.49
60936;BMP280;46804;51.786;19.520;2022-09-13T05:38:23;98089.97;;;9.65
60936;BMP280;46804;51.786;19.520;2022-09-13T05:42:24;98087.94;;;9.82
60936;BMP280;46804;51.786;19.520;2022-09-13T05:46:25;98092.00;;;9.94
60936;BMP280;46804;51.786;19.520;2022-09-13T05:50:25;98093.19;;;10.13
60936;BMP280;46804;51.786;19.520;2022-09-13T05:54:26;98097.78;;;10.32
60936;BMP280;46804;51.786;19.520;2022-09-13T05:58:26;98096.00;;;10.52
60936;BMP280;46804;51.786;19.520;2022-09-13T06:02:27;98105.09;;;10.71
60936;BMP280;46804;51.786;19.520;2022-09-13T06:06:27;98107.28;;;11.03
60936;BMP280;46804;51.786;19.520;2022-09-13T06:10:28;98096.13;;;11.41
60936;BMP280;46804;51.786;19.520;2022-09-13T06:14:28;98104.13;;;11.75
60936;BMP280;46804;51.786;19.520;2022-09-13T06:18:29;98094.97;;;12.11
60936;BMP280;46804;51.786;19.520;2022-09-13T06:22:30;98096.22;;;12.33
60936;BMP280;46804;51.786;19.520;2022-09-13T06:26:32;98080.81;;;12.68
60936;BMP280;46804;51.786;19.520;2022-09-13T06:30:33;98072.88;;;13.06
60936;BMP280;46804;51.786;19.520;2022-09-13T06:34:33;98079.22;;;13.48
60936;BMP280;46804;51.786;19.520;2022-09-13T06:38:34;98072.94;;;13.90
60936;BMP280;46804;51.786;19.520;2022-09-13T06:42:35;98081.56;;;14.33
60936;BMP280;46804;51.786;19.520;2022-09-13T06:46:36;98068.44;;;14.73
60936;BMP280;46804;51.786;19.520;2022-09-13T06:50:36;98068.16;;;15.11
60936;BMP280;46804;51.786;19.520;2022-09-13T06:54:37;98072.69;;;15.47
60936;BMP280;46804;51.786;19.520;2022-09-13T06:58:40;98078.38;;;15.59
60936;BMP280;46804;51.786;19.520;2022-09-13T07:02:41;98044.84;;;15.75
60936;BMP280;46804;51.786;19.520;2022-09-13T07:06:43;98087.59;;;16.11
60936;BMP280;46804;51.786;19.520;2022-09-13T07:10:45;97995.28;;;16.26
60936;BMP280;46804;51.786;19.520;2022-09-13T07:14:45;98055.94;;;16.40
60936;BMP280;46804;51.786;19.520;2022-09-13T07:18:50;98015.84;;;16.43
60936;BMP280;46804;51.786;19.520;2022-09-13T07:22:52;97959.84;;;16.50
60936;BMP280;46804;51.786;19.520;2022-09-13T07:26:53;97999.16;;;16.68
60936;BMP280;46804;51.786;19.520;2022-09-13T07:30:53;97976.34;;;16.79
60936;BMP280;46804;51.786;19.520;2022-09-13T07:34:54;97910.00;;;16.79
60936;BMP280;46804;51.786;19.520;2022-09-13T07:38:55;98013.31;;;16.95
60936;BMP280;46804;51.786;19.520;2022-09-13T07:42:55;97956.13;;;17.16
60936;BMP280;46804;51.786;19.520;2022-09-13T07:46:56;97946.94;;;17.17
60936;BMP280;46804;51.786;19.520;2022-09-13T07:55:01;97851.00;;;17.65
60936;BMP280;46804;51.786;19.520;2022-09-13T07:59:04;97857.09;;;18.03
60936;BMP280;46804;51.786;19.520;2022-09-13T08:03:06;97840.69;;;18.22
60936;BMP280;46804;51.786;19.520;2022-09-13T08:07:08;97777.00;;;18.26
60936;BMP280;46804;51.786;19.520;2022-09-13T08:11:14;97724.00;;;18.63
60936;BMP280;46804;51.786;19.520;2022-09-13T08:15:15;97755.88;;;19.15
60936;BMP280;46804;51.786;19.520;2022-09-13T08:19:17;97745.88;;;18.62
60936;BMP280;46804;51.786;19.520;2022-09-13T08:23:17;97787.50;;;18.89
60936;BMP280;46804;51.786;19.520;2022-09-13T08:27:18;97758.16;;;18.88
60936;BMP280;46804;51.786;19.520;2022-09-13T08:31:19;97717.69;;;19.05
60936;BMP280;46804;51.786;19.520;2022-09-13T08:35:19;97700.47;;;19.46
60936;BMP280;46804;51.786;19.520;2022-09-13T08:39:20;97595.03;;;19.79
60936;BMP280;46804;51.786;19.520;2022-09-13T08:43:38;97483.56;;;19.79
60936;BMP280;46804;51.786;19.520;2022-09-13T08:47:45;97521.09;;;20.28
60936;BMP280;46804;51.786;19.520;2022-09-13T08:51:53;97486.31;;;20.50
60936;BMP280;46804;51.786;19.520;2022-09-13T08:56:05;97386.59;;;21.38
60936;BMP280;46804;51.786;19.520;2022-09-13T09:00:26;97291.69;;;21.46
60936;BMP280;46804;51.786;19.520;2022-09-13T09:04:45;97382.97;;;21.34
60936;BMP280;46804;51.786;19.520;2022-09-13T09:09:06;97452.34;;;20.88
60936;BMP280;46804;51.786;19.520;2022-09-13T09:13:14;97547.63;;;20.38
60936;BMP280;46804;51.786;19.520;2022-09-13T09:17:22;97470.63;;;20.55
60936;BMP280;46804;51.786;19.520;2022-09-13T09:21:23;97533.34;;;20.13
60936;BMP280;46804;51.786;19.520;2022-09-13T09:25:24;97639.94;;;19.96
60936;BMP280;46804;51.786;19.520;2022-09-13T09:29:28;97606.88;;;19.99
60936;BMP280;46804;51.786;19.520;2022-09-13T09:33:46;97686.25;;;20.18
60936;BMP280;46804;51.786;19.520;2022-09-13T09:38:01;97584.34;;;20.39
60936;BMP280;46804;51.786;19.520;2022-09-13T09:42:12;97361.66;;;21.17
60936;BMP280;46804;51.786;19.520;2022-09-13T09:46:14;97295.06;;;21.89
60936;BMP280;46804;51.786;19.520;2022-09-13T09:50:19;97223.53;;;22.65
60936;BMP280;46804;51.786;19.520;2022-09-13T09:54:23;97225.53;;;22.27
60936;BMP280;46804;51.786;19.520;2022-09-13T09:58:40;97300.19;;;21.94
60936;BMP280;46804;51.786;19.520;2022-09-13T10:02:46;97243.16;;;22.40
60936;BMP280;46804;51.786;19.520;2022-09-13T10:06:47;97178.88;;;22.37
60936;BMP280;46804;51.786;19.520;2022-09-13T10:10:53;97259.81;;;22.39
60936;BMP280;46804;51.786;19.520;2022-09-13T10:15:03;97181.78;;;22.88
60936;BMP280;46804;51.786;19.520;2022-09-13T10:19:24;97105.59;;;23.22
60936;BMP280;46804;51.786;19.520;2022-09-13T10:23:25;97710.00;;;23.25
60936;BMP280;46804;51.786;19.520;2022-09-13T10:27:34;97752.69;;;23.28
60936;BMP280;46804;51.786;19.520;2022-09-13T10:31:38;97754.88;;;23.69
60936;BMP280;46804;51.786;19.520;2022-09-13T10:35:39;97765.97;;;22.87
60936;BMP280;46804;51.786;19.520;2022-09-13T10:39:52;97760.06;;;22.97
60936;BMP280;46804;51.786;19.520;2022-09-13T10:43:58;97783.91;;;22.49
60936;BMP280;46804;51.786;19.520;2022-09-13T10:48:18;97783.56;;;22.66
60936;BMP280;46804;51.786;19.520;2022-09-13T10:52:42;97792.22;;;22.56
60936;BMP280;46804;51.786;19.520;2022-09-13T10:56:43;97759.56;;;22.80
60936;BMP280;46804;51.786;19.520;2022-09-13T11:09:33;97738.69;;;23.11
60936;BMP280;46804;51.786;19.520;2022-09-13T11:14:20;97711.19;;;24.71
60936;BMP280;46804;51.786;19.520;2022-09-13T11:27:16;97690.63;;;24.92
60936;BMP280;46804;51.786;19.520;2022-09-13T11:40:25;97736.41;;;23.28
60936;BMP280;46804;51.786;19.520;2022-09-13T11:44:38;97705.75;;;23.58
60936;BMP280;46804;51.786;19.520;2022-09-13T11:57:49;97695.53;;;23.37
60936;BMP280;46804;51.786;19.520;2022-09-13T12:01:55;97700.63;;;23.08
60936;BMP280;46804;51.786;19.520;2022-09-13T12:06:00;97725.03;;;22.92
60936;BMP280;46804;51.786;19.520;2022-09-13T12:10:08;97743.56;;;21.82
60936;BMP280;46804;51.786;19.520;2022-09-13T12:14:20;97731.44;;;21.91
60936;BMP280;46804;51.786;19.520;2022-09-13T12:18:27;97731.94;;;21.70
60936;BMP280;46804;51.786;19.520;2022-09-13T12:22:32;97731.06;;;21.78
60936;BMP280;46804;51.786;19.520;2022-09-13T12:26:59;97714.38;;;21.64
60936;BMP280;46804;51.786;19.520;2022-09-13T12:31:05;97709.44;;;21.30
60936;BMP280;46804;51.786;19.520;2022-09-13T12:35:12;97721.38;;;21.17
60936;BMP280;46804;51.786;19.520;2022-09-13T12:48:19;97717.09;;;20.93
60936;BMP280;46804;51.786;19.520;2022-09-13T12:52:29;97722.13;;;20.39
60936;BMP280;46804;51.786;19.520;2022-09-13T13:05:02;97741.63;;;20.76
60936;BMP280;46804;51.786;19.520;2022-09-13T13:09:16;97713.22;;;20.70
60936;BMP280;46804;51.786;19.520;2022-09-13T13:13:25;97721.56;;;20.77
60936;BMP280;46804;51.786;19.520;2022-09-13T13:17:48;97705.91;;;20.82
60936;BMP280;46804;51.786;19.520;2022-09-13T13:21:49;97708.88;;;20.57
60936;BMP280;46804;51.786;19.520;2022-09-13T13:30:45;97700.75;;;20.13
60936;BMP280;46804;51.786;19.520;2022-09-13T13:34:51;97737.00;;;20.12
60936;BMP280;46804;51.786;19.520;2022-09-13T13:38:55;97715.34;;;20.33
60936;BMP280;46804;51.786;19.520;2022-09-13T13:43:30;97720.50;;;20.26
60936;BMP280;46804;51.786;19.520;2022-09-13T13:51:32;97700.22;;;20.20
60936;BMP280;46804;51.786;19.520;2022-09-13T13:59:33;97684.00;;;20.20
60936;BMP280;46804;51.786;19.520;2022-09-13T14:17:44;97690.13;;;20.29
60936;BMP280;46804;51.786;19.520;2022-09-13T14:22:04;97703.28;;;20.18
60936;BMP280;46804;51.786;19.520;2022-09-13T14:26:05;97699.00;;;20.29
60936;BMP280;46804;51.786;19.520;2022-09-13T14:30:30;97675.03;;;20.28
60936;BMP280;46804;51.786;19.520;2022-09-13T14:34:34;97673.34;;;20.23
60936;BMP280;46804;51.786;19.520;2022-09-13T14:38:36;97711.16;;;20.03
60936;BMP280;46804;51.786;19.520;2022-09-13T14:42:46;97708.69;;;19.98
60936;BMP280;46804;51.786;19.520;2022-09-13T14:46:53;97694.97;;;20.03
60936;BMP280;46804;51.786;19.520;2022-09-13T14:51:14;97659.63;;;19.96
60936;BMP280;46804;51.786;19.520;2022-09-13T14:55:28;97654.72;;;19.78
60936;BMP280;46804;51.786;19.520;2022-09-13T14:59:40;97689.06;;;19.69
60936;BMP280;46804;51.786;19.520;2022-09-13T15:03:43;97680.50;;;19.87
60936;BMP280;46804;51.786;19.520;2022-09-13T15:07:44;97663.66;;;19.90
60936;BMP280;46804;51.786;19.520;2022-09-13T15:15:52;97679.09;;;19.41
60936;BMP280;46804;51.786;19.520;2022-09-13T15:20:03;97692.06;;;19.27
60936;BMP280;46804;51.786;19.520;2022-09-13T15:24:04;97692.84;;;19.28
60936;BMP280;46804;51.786;19.520;2022-09-13T15:28:04;97701.06;;;19.03
60936;BMP280;46804;51.786;19.520;2022-09-13T15:32:05;97713.28;;;18.92
60936;BMP280;46804;51.786;19.520;2022-09-13T15:40:20;97778.81;;;18.84
60936;BMP280;46804;51.786;19.520;2022-09-13T15:44:22;97720.34;;;18.76
60936;BMP280;46804;51.786;19.520;2022-09-13T15:48:28;97681.38;;;18.65
60936;BMP280;46804;51.786;19.520;2022-09-13T15:52:29;97701.59;;;18.42
60936;BMP280;46804;51.786;19.520;2022-09-13T15:56:32;97708.06;;;18.41
60936;BMP280;46804;51.786;19.520;2022-09-13T16:00:33;97717.00;;;18.25
60936;BMP280;46804;51.786;19.520;2022-09-13T16:04:34;97702.28;;;18.23
60936;BMP280;46804;51.786;19.520;2022-09-13T16:08:35;97666.16;;;18.15
60936;BMP280;46804;51.786;19.520;2022-09-13T16:12:36;97651.44;;;18.21
60936;BMP280;46804;51.786;19.520;2022-09-13T16:16:38;97692.13;;;18.11
60936;BMP280;46804;51.786;19.520;2022-09-13T16:20:39;97667.00;;;18.07
60936;BMP280;46804;51.786;19.520;2022-09-13T16:24:41;97593.19;;;18.08
60936;BMP280;46804;51.786;19.520;2022-09-13T16:28:45;97633.56;;;18.00
60936;BMP280;46804;51.786;19.520;2022-09-13T16:32:45;97627.69;;;17.98
60936;BMP280;46804;51.786;19.520;2022-09-13T16:36:46;97624.41;;;17.84
60936;BMP280;46804;51.786;19.520;2022-09-13T16:40:46;97611.91;;;17.80
60936;BMP280;46804;51.786;19.520;2022-09-13T16:44:47;97597.03;;;17.74
60936;BMP280;46804;51.786;19.520;2022-09-13T16:48:54;97594.66;;;17.72
60936;BMP280;46804;51.786;19.520;2022-09-13T16:52:55;97618.91;;;17.64
60936;BMP280;46804;51.786;19.520;2022-09-13T16:56:56;97598.00;;;17.61
60936;BMP280;46804;51.786;19.520;2022-09-13T17:00:58;97607.97;;;17.52
60936;BMP280;46804;51.786;19.520;2022-09-13T17:04:59;97605.75;;;17.46
60936;BMP280;46804;51.786;19.520;2022-09-13T17:09:01;97590.59;;;17.41
60936;BMP280;46804;51.786;19.520;2022-09-13T17:13:03;97608.78;;;17.36
60936;BMP280;46804;51.786;19.520;2022-09-13T17:17:05;97577.44;;;17.40
60936;BMP280;46804;51.786;19.520;2022-09-13T17:21:06;97573.84;;;17.36
60936;BMP280;46804;51.786;19.520;2022-09-13T17:25:09;97603.41;;;17.36
60936;BMP280;46804;51.786;19.520;2022-09-13T17:29:10;97592.66;;;17.36
60936;BMP280;46804;51.786;19.520;2022-09-13T17:33:12;97601.66;;;17.32
60936;BMP280;46804;51.786;19.520;2022-09-13T17:37:12;97588.84;;;17.29
60936;BMP280;46804;51.786;19.520;2022-09-13T17:41:16;97599.59;;;17.29
60936;BMP280;46804;51.786;19.520;2022-09-13T17:45:18;97580.47;;;17.30
60936;BMP280;46804;51.786;19.520;2022-09-13T17:49:19;97585.19;;;17.33
60936;BMP280;46804;51.786;19.520;2022-09-13T17:53:20;97589.00;;;17.32
60936;BMP280;46804;51.786;19.520;2022-09-13T17:57:23;97574.13;;;17.26
60936;BMP280;46804;51.786;19.520;2022-09-13T18:01:23;97580.31;;;17.27
60936;BMP280;46804;51.786;19.520;2022-09-13T18:05:24;97587.88;;;17.25
60936;BMP280;46804;51.786;19.520;2022-09-13T18:09:25;97579.81;;;17.25
60936;BMP280;46804;51.786;19.520;2022-09-13T18:13:26;97588.38;;;17.27
60936;BMP280;46804;51.786;19.520;2022-09-13T18:17:26;97587.25;;;17.19
60936;BMP280;46804;51.786;19.520;2022-09-13T18:21:27;97588.38;;;17.18
60936;BMP280;46804;51.786;19.520;2022-09-13T18:25:29;97589.78;;;17.07
60936;BMP280;46804;51.786;19.520;2022-09-13T18:29:30;97583.09;;;17.05
60936;BMP280;46804;51.786;19.520;2022-09-13T18:33:32;97571.09;;;17.02
60936;BMP280;46804;51.786;19.520;2022-09-13T18:37:34;97579.31;;;16.98
60936;BMP280;46804;51.786;19.520;2022-09-13T18:41:37;97578.84;;;16.96
60936;BMP280;46804;51.786;19.520;2022-09-13T18:45:43;97566.50;;;16.78
60936;BMP280;46804;51.786;19.520;2022-09-13T18:49:53;97575.63;;;16.77
60936;BMP280;46804;51.786;19.520;2022-09-13T18:53:56;97579.44;;;16.76
60936;BMP280;46804;51.786;19.520;2022-09-13T18:57:58;97572.59;;;16.53
60936;BMP280;46804;51.786;19.520;2022-09-13T19:01:59;97578.09;;;16.48
60936;BMP280;46804;51.786;19.520;2022-09-13T19:06:12;97572.06;;;16.34
60936;BMP280;46804;51.786;19.520;2022-09-13T19:10:14;97571.28;;;16.34
60936;BMP280;46804;51.786;19.520;2022-09-13T19:14:22;97567.00;;;16.33
60936;BMP280;46804;51.786;19.520;2022-09-13T19:18:25;97573.59;;;16.19
60936;BMP280;46804;51.786;19.520;2022-09-13T19:22:26;97568.94;;;16.11
60936;BMP280;46804;51.786;19.520;2022-09-13T19:26:35;97567.16;;;16.06
60936;BMP280;46804;51.786;19.520;2022-09-13T19:30:36;97571.91;;;16.09
60936;BMP280;46804;51.786;19.520;2022-09-13T19:34:37;97577.13;;;16.06
60936;BMP280;46804;51.786;19.520;2022-09-13T19:38:38;97558.25;;;15.89
60936;BMP280;46804;51.786;19.520;2022-09-13T19:42:39;97562.84;;;15.89
60936;BMP280;46804;51.786;19.520;2022-09-13T19:46:40;97563.06;;;15.79
60936;BMP280;46804;51.786;19.520;2022-09-13T19:50:41;97555.53;;;15.81
60936;BMP280;46804;51.786;19.520;2022-09-13T19:54:41;97560.41;;;15.79
60936;BMP280;46804;51.786;19.520;2022-09-13T19:58:43;97552.69;;;15.77
60936;BMP280;46804;51.786;19.520;2022-09-13T20:02:46;97547.81;;;15.79
60936;BMP280;46804;51.786;19.520;2022-09-13T20:06:47;97546.53;;;15.77
60936;BMP280;46804;51.786;19.520;2022-09-13T20:10:49;97536.59;;;15.77
60936;BMP280;46804;51.786;19.520;2022-09-13T20:14:50;97540.34;;;15.76
60936;BMP280;46804;51.786;19.520;2022-09-13T20:18:51;97543.66;;;15.73
60936;BMP280;46804;51.786;19.520;2022-09-13T20:22:52;97527.38;;;15.70
60936;BMP280;46804;51.786;19.520;2022-09-13T20:26:52;97528.19;;;15.70
60936;BMP280;46804;51.786;19.520;2022-09-13T20:30:55;97530.50;;;15.63
60936;BMP280;46804;51.786;19.520;2022-09-13T20:34:55;97523.09;;;15.61
60936;BMP280;46804;51.786;19.520;2022-09-13T20:38:57;97520.69;;;15.59
60936;BMP280;46804;51.786;19.520;2022-09-13T20:42:57;97520.63;;;15.51
60936;BMP280;46804;51.786;19.520;2022-09-13T20:46:58;97508.53;;;15.53
60936;BMP280;46804;51.786;19.520;2022-09-13T20:51:01;97513.34;;;15.43
60936;BMP280;46804;51.786;19.520;2022-09-13T20:55:02;97512.38;;;15.39
60936;BMP280;46804;51.786;19.520;2022-09-13T20:59:03;97517.25;;;15.37
60936;BMP280;46804;51.786;19.520;2022-09-13T21:03:04;97515.50;;;15.32
60936;BMP280;46804;51.786;19.520;2022-09-13T21:07:04;97504.78;;;15.32
60936;BMP280;46804;51.786;19.520;2022-09-13T21:11:29;97500.59;;;15.40
60936;BMP280;46804;51.786;19.520;2022-09-13T21:15:32;97495.22;;;15.40
60936;BMP280;46804;51.786;19.520;2022-09-13T21:19:33;97486.84;;;15.41
60936;BMP280;46804;51.786;19.520;2022-09-13T21:23:35;97490.59;;;15.32
60936;BMP280;46804;51.786;19.520;2022-09-13T21:27:43;97494.97;;;15.28
60936;BMP280;46804;51.786;19.520;2022-09-13T21:31:43;97490.47;;;15.37
60936;BMP280;46804;51.786;19.520;2022-09-13T21:35:44;97502.78;;;15.46
60936;BMP280;46804;51.786;19.520;2022-09-13T21:39:44;97510.38;;;15.44
60936;BMP280;46804;51.786;19.520;2022-09-13T21:43:45;97509.28;;;15.45
60936;BMP280;46804;51.786;19.520;2022-09-13T21:47:46;97503.72;;;15.42
60936;BMP280;46804;51.786;19.520;2022-09-13T21:51:48;97492.69;;;15.43
60936;BMP280;46804;51.786;19.520;2022-09-13T21:55:51;97498.97;;;15.39
60936;BMP280;46804;51.786;19.520;2022-09-13T21:59:51;97495.38;;;15.43
60936;BMP280;46804;51.786;19.520;2022-09-13T22:03:52;97505.97;;;15.48
60936;BMP280;46804;51.786;19.520;2022-09-13T22:07:52;97492.75;;;15.52
60936;BMP280;46804;51.786;19.520;2022-09-13T22:11:54;97493.69;;;15.47
60936;BMP280;46804;51.786;19.520;2022-09-13T22:15:55;97499.53;;;15.49
60936;BMP280;46804;51.786;19.520;2022-09-13T22:19:55;97498.75;;;15.49
60936;BMP280;46804;51.786;19.520;2022-09-13T22:23:56;97500.50;;;15.53
60936;BMP280;46804;51.786;19.520;2022-09-13T22:27:57;97497.34;;;15.51
60936;BMP280;46804;51.786;19.520;2022-09-13T22:31:58;97505.38;;;15.51
60936;BMP280;46804;51.786;19.520;2022-09-13T22:36:00;97499.53;;;15.49
60936;BMP280;46804;51.786;19.520;2022-09-13T22:40:03;97503.47;;;15.52
60936;BMP280;46804;51.786;19.520;2022-09-13T22:44:03;97502.22;;;15.49
60936;BMP280;46804;51.786;19.520;2022-09-13T22:48:04;97508.34;;;15.50
60936;BMP280;46804;51.786;19.520;2022-09-13T22:52:05;97502.50;;;15.48
60936;BMP280;46804;51.786;19.520;2022-09-13T22:56:09;97503.13;;;15.45
60936;BMP280;46804;51.786;19.520;2022-09-13T23:00:10;97497.91;;;15.40
60936;BMP280;46804;51.786;19.520;2022-09-13T23:04:11;97502.03;;;15.24
60936;BMP280;46804;51.786;19.520;2022-09-13T23:08:12;97492.84;;;15.17
60936;BMP280;46804;51.786;19.520;2022-09-13T23:12:12;97507.25;;;15.07
60936;BMP280;46804;51.786;19.520;2022-09-13T23:16:15;97500.94;;;15.03
60936;BMP280;46804;51.786;19.520;2022-09-13T23:20:16;97492.31;;;14.93
60936;BMP280;46804;51.786;19.520;2022-09-13T23:24:19;97500.00;;;14.86
60936;BMP280;46804;51.786;19.520;2022-09-13T23:28:19;97498.81;;;14.79
60936;BMP280;46804;51.786;19.520;2022-09-13T23:32:20;97502.22;;;14.71
60936;BMP280;46804;51.786;19.520;2022-09-13T23:36:25;97510.97;;;14.63
60936;BMP280;46804;51.786;19.520;2022-09-13T23:45:25;97497.69;;;14.58
60936;BMP280;46804;51.786;19.520;2022-09-13T23:49:26;97495.72;;;14.50
60936;BMP280;46804;51.786;19.520;2022-09-13T23:53:27;97499.72;;;14.39
60936;BMP280;46804;51.786;19.520;2022-09-13T23:57:27;97497.75;;;14.31
